Buoy 16575

sailwx.info

Track history (hours):
 
Tides and Currents Weather Stations Pressure Air Temp Water Temp Dewpoint Dewpoint Depression Visibility Wind Speed Wind Dir Waves Ship Positions

Drifting buoy 16575

Last reported at 2015-Apr-19 22:10 UTC. Time now 2015-Apr-20 00:47 UTC.
Position S 26°51' E 033°45'.

Water temperature 28.7 ° C

Date/timePositionNaut miles runAvg speedWind from/ knotsBaromVisibWave heightAir tempDewpointWater temp
2015-Apr-19 22:10S 26°51' E 033°45'12 2.0 28.7
2015-Apr-19 16:10S 26°45' E 033°56'16 1.8 28.5
2015-Apr-19 07:10S 26°35' E 034°11'2 0.9 28.8
2015-Apr-19 05:20S 26°33' E 034°12'9 2.2 28.7
2015-Apr-19 01:10S 26°28' E 034°20'2 1.2 28.7
2015-Apr-18 23:10S 26°27' E 034°22'2 2.3 28.8
2015-Apr-18 22:10S 26°26' E 034°24'9 1.3 28.8
2015-Apr-18 15:10S 26°20' E 034°33'13 1.3 29.0
2015-Apr-18 05:10S 26°17' E 034°47'5 1.2 28.7
2015-Apr-18 01:10S 26°15' E 034°52'20 1.7 28.6
2015-Apr-17 13:10S 26°13' E 035°14'3 2.7 29.0
2015-Apr-17 12:10S 26°13' E 035°17'29 1.3 29.1
2015-Apr-16 13:10S 26°09' E 035°49'2 2.5 29.2
2015-Apr-16 12:10S 26°08' E 035°52'12 1.7 29.2
2015-Apr-16 05:10S 26°09' E 036°05'6 1.2 28.5
2015-Apr-16 00:10S 26°11' E 036°11'6 1.3 28.6
2015-Apr-15 19:10S 26°13' E 036°17'8 1.1 28.7
2015-Apr-15 12:10S 26°18' E 036°24'10 0.9 29.3
2015-Apr-15 01:10S 26°21' E 036°35'1 0.7 28.4
2015-Apr-14 23:10S 26°22' E 036°36'4 3.8 28.4
2015-Apr-14 22:10S 26°23' E 036°40'8 1.3 28.4
2015-Apr-14 16:10S 26°26' E 036°48'3 0.6 28.8
2015-Apr-14 10:10S 26°26' E 036°52'8 1.7 29.2
2015-Apr-14 05:10S 26°27' E 037°01'0 0.0 28.8
2015-Apr-14 04:10S 26°27' E 037°01'1 0.6 28.7
2015-Apr-14 03:10S 26°28' E 037°02'5 1.3 28.7
2015-Apr-13 23:10S 26°29' E 037°07'12 1.2 28.8
2015-Apr-13 13:10S 26°34' E 037°20'2 0.6 28.9
2015-Apr-13 10:10S 26°34' E 037°22'23 1.6 28.9
2015-Apr-12 19:10S 26°43' E 037°46'3 0.8 28.5
2015-Apr-12 15:10S 26°44' E 037°50'2 2.3 28.7
2015-Apr-12 14:10S 26°45' E 037°52'2 1.9 28.7
2015-Apr-12 13:10S 26°46' E 037°54'9 1.4 28.8
2015-Apr-12 07:10S 26°49' E 038°03'5 1.6 28.4
2015-Apr-12 04:10S 26°52' E 038°08'1 0.7 28.1
2015-Apr-12 03:10S 26°52' E 038°08'3 1.3 28.1
2015-Apr-12 01:10S 26°53' E 038°11'5 5.4 28.1
2015-Apr-12 00:10S 26°55' E 038°17'0 0.0 28.1
2015-Apr-11 22:10S 26°55' E 038°17'5 5.1 28.1
2015-Apr-11 21:10S 26°56' E 038°22'1 0.7 28.1
2015-Apr-11 19:10S 26°56' E 038°24'3 3.1 28.1
2015-Apr-11 18:10S 26°57' E 038°27'12 2.0 28.1
2015-Apr-11 12:10S 26°55' E 038°41'12 1.5 28.2
2015-Apr-11 04:10S 26°54' E 038°54'1 0.6 28.1
2015-Apr-11 03:10S 26°54' E 038°55'3 2.8 28.0
2015-Apr-11 02:10S 26°54' E 038°58'3 3.4 28.1
2015-Apr-11 01:10S 26°54' E 039°02'4 3.7 28.1
2015-Apr-11 00:10S 26°54' E 039°06'0 0.0 28.2
2015-Apr-10 22:10S 26°54' E 039°06'9 8.6 28.4
2015-Apr-10 21:10S 26°53' E 039°16'6 1.2 28.4
2015-Apr-10 16:10S 26°52' E 039°22'4 2.2 28.6
2015-Apr-10 14:10S 26°51' E 039°27'8 1.6 28.7
2015-Apr-10 09:10S 26°53' E 039°36'7 2.4 28.5
2015-Apr-10 06:10S 26°52' E 039°44'1 1.3 28.5
2015-Apr-10 05:10S 26°51' E 039°45'8 2.0 28.4
2015-Apr-10 01:10S 26°50' E 039°54'4 2.0 28.4
2015-Apr-09 23:10S 26°50' E 039°59'3 3.4 28.5
2015-Apr-09 22:10S 26°50' E 040°02'   28.5
Track history (hours):
 
Tides and Currents Weather Stations Pressure Air Temp Water Temp Dewpoint Dewpoint Depression Visibility Wind Speed Wind Dir Waves Ship Positions

Drifting buoy 16575

Last reported at 2015-Apr-19 22:10 UTC. Time now 2015-Apr-20 00:47 UTC.
Position S 26°51' E 033°45'.

Water temperature 28.7 ° C

Date/timePositionNaut miles runAvg speedWind from/ knotsBaromVisibWave heightAir tempDewpointWater temp
2015-Apr-19 22:10S 26°51' E 033°45'12 2.0 28.7
2015-Apr-19 16:10S 26°45' E 033°56'16 1.8 28.5
2015-Apr-19 07:10S 26°35' E 034°11'2 0.9 28.8
2015-Apr-19 05:20S 26°33' E 034°12'9 2.2 28.7
2015-Apr-19 01:10S 26°28' E 034°20'2 1.2 28.7
2015-Apr-18 23:10S 26°27' E 034°22'2 2.3 28.8
2015-Apr-18 22:10S 26°26' E 034°24'9 1.3 28.8
2015-Apr-18 15:10S 26°20' E 034°33'13 1.3 29.0
2015-Apr-18 05:10S 26°17' E 034°47'5 1.2 28.7
2015-Apr-18 01:10S 26°15' E 034°52'20 1.7 28.6
2015-Apr-17 13:10S 26°13' E 035°14'3 2.7 29.0
2015-Apr-17 12:10S 26°13' E 035°17'29 1.3 29.1
2015-Apr-16 13:10S 26°09' E 035°49'2 2.5 29.2
2015-Apr-16 12:10S 26°08' E 035°52'12 1.7 29.2
2015-Apr-16 05:10S 26°09' E 036°05'6 1.2 28.5
2015-Apr-16 00:10S 26°11' E 036°11'6 1.3 28.6
2015-Apr-15 19:10S 26°13' E 036°17'8 1.1 28.7
2015-Apr-15 12:10S 26°18' E 036°24'10 0.9 29.3
2015-Apr-15 01:10S 26°21' E 036°35'1 0.7 28.4
2015-Apr-14 23:10S 26°22' E 036°36'4 3.8 28.4
2015-Apr-14 22:10S 26°23' E 036°40'8 1.3 28.4
2015-Apr-14 16:10S 26°26' E 036°48'3 0.6 28.8
2015-Apr-14 10:10S 26°26' E 036°52'8 1.7 29.2
2015-Apr-14 05:10S 26°27' E 037°01'0 0.0 28.8
2015-Apr-14 04:10S 26°27' E 037°01'1 0.6 28.7
2015-Apr-14 03:10S 26°28' E 037°02'5 1.3 28.7
2015-Apr-13 23:10S 26°29' E 037°07'12 1.2 28.8
2015-Apr-13 13:10S 26°34' E 037°20'2 0.6 28.9
2015-Apr-13 10:10S 26°34' E 037°22'23 1.6 28.9
2015-Apr-12 19:10S 26°43' E 037°46'3 0.8 28.5
2015-Apr-12 15:10S 26°44' E 037°50'2 2.3 28.7
2015-Apr-12 14:10S 26°45' E 037°52'2 1.9 28.7
2015-Apr-12 13:10S 26°46' E 037°54'9 1.4 28.8
2015-Apr-12 07:10S 26°49' E 038°03'5 1.6 28.4
2015-Apr-12 04:10S 26°52' E 038°08'1 0.7 28.1
2015-Apr-12 03:10S 26°52' E 038°08'3 1.3 28.1
2015-Apr-12 01:10S 26°53' E 038°11'5 5.4 28.1
2015-Apr-12 00:10S 26°55' E 038°17'0 0.0 28.1
2015-Apr-11 22:10S 26°55' E 038°17'5 5.1 28.1
2015-Apr-11 21:10S 26°56' E 038°22'1 0.7 28.1
2015-Apr-11 19:10S 26°56' E 038°24'3 3.1 28.1
2015-Apr-11 18:10S 26°57' E 038°27'12 2.0 28.1
2015-Apr-11 12:10S 26°55' E 038°41'12 1.5 28.2
2015-Apr-11 04:10S 26°54' E 038°54'1 0.6 28.1
2015-Apr-11 03:10S 26°54' E 038°55'3 2.8 28.0
2015-Apr-11 02:10S 26°54' E 038°58'3 3.4 28.1
2015-Apr-11 01:10S 26°54' E 039°02'4 3.7 28.1
2015-Apr-11 00:10S 26°54' E 039°06'0 0.0 28.2
2015-Apr-10 22:10S 26°54' E 039°06'9 8.6 28.4
2015-Apr-10 21:10S 26°53' E 039°16'6 1.2 28.4
2015-Apr-10 16:10S 26°52' E 039°22'4 2.2 28.6
2015-Apr-10 14:10S 26°51' E 039°27'8 1.6 28.7
2015-Apr-10 09:10S 26°53' E 039°36'7 2.4 28.5
2015-Apr-10 06:10S 26°52' E 039°44'1 1.3 28.5
2015-Apr-10 05:10S 26°51' E 039°45'8 2.0 28.4
2015-Apr-10 01:10S 26°50' E 039°54'4 2.0 28.4
2015-Apr-09 23:10S 26°50' E 039°59'3 3.4 28.5
2015-Apr-09 22:10S 26°50' E 040°02'   28.5

Dump ship's entire track history